sensor_id;sensor_type;location;lat;lon;timestamp;temperature;humidity
13854;DHT22;6997;51.782;8.824;2022-12-18T00:03:35;-7.60;99.90
13854;DHT22;6997;51.782;8.824;2022-12-18T00:08:27;-7.60;99.90
13854;DHT22;6997;51.782;8.824;2022-12-18T00:13:19;-7.70;99.90
13854;DHT22;6997;51.782;8.824;2022-12-18T00:23:04;-7.70;99.90
13854;DHT22;6997;51.782;8.824;2022-12-18T00:27:58;-7.80;99.90
13854;DHT22;6997;51.782;8.824;2022-12-18T00:32:49;-7.80;99.90
13854;DHT22;6997;51.782;8.824;2022-12-18T00:52:35;-7.80;99.90
13854;DHT22;6997;51.782;8.824;2022-12-18T00:59:53;-8.00;99.90
13854;DHT22;6997;51.782;8.824;2022-12-18T01:04:44;-8.00;99.90
13854;DHT22;6997;51.782;8.824;2022-12-18T01:07:10;-8.00;99.90
13854;DHT22;6997;51.782;8.824;2022-12-18T01:12:01;-7.90;99.90
13854;DHT22;6997;51.782;8.824;2022-12-18T01:14:27;-7.80;99.90
13854;DHT22;6997;51.782;8.824;2022-12-18T01:16:53;-8.10;99.90
13854;DHT22;6997;51.782;8.824;2022-12-18T01:24:11;-7.80;99.90
13854;DHT22;6997;51.782;8.824;2022-12-18T01:26:37;-7.90;99.90
13854;DHT22;6997;51.782;8.824;2022-12-18T01:31:31;-7.90;99.90
13854;DHT22;6997;51.782;8.824;2022-12-18T01:33:57;-7.90;99.90
13854;DHT22;6997;51.782;8.824;2022-12-18T01:36:31;-7.90;99.90
13854;DHT22;6997;51.782;8.824;2022-12-18T01:46:57;-7.90;99.90
13854;DHT22;6997;51.782;8.824;2022-12-18T01:49:22;-8.00;99.90
13854;DHT22;6997;51.782;8.824;2022-12-18T02:01:34;-7.90;99.90
13854;DHT22;6997;51.782;8.824;2022-12-18T02:04:23;-7.90;99.90
13854;DHT22;6997;51.782;8.824;2022-12-18T02:07:17;-7.90;99.90
13854;DHT22;6997;51.782;8.824;2022-12-18T02:15:19;-8.00;99.90
13854;DHT22;6997;51.782;8.824;2022-12-18T02:17:54;-7.90;99.90
13854;DHT22;6997;51.782;8.824;2022-12-18T02:20:23;-7.70;99.90
13854;DHT22;6997;51.782;8.824;2022-12-18T02:28:45;-7.70;99.90
13854;DHT22;6997;51.782;8.824;2022-12-18T02:31:15;-7.50;99.90
13854;DHT22;6997;51.782;8.824;2022-12-18T02:33:44;-7.50;99.90
13854;DHT22;6997;51.782;8.824;2022-12-18T02:36:10;-7.50;99.90
13854;DHT22;6997;51.782;8.824;2022-12-18T02:38:38;-7.60;99.90
13854;DHT22;6997;51.782;8.824;2022-12-18T02:41:04;-7.60;99.90
13854;DHT22;6997;51.782;8.824;2022-12-18T02:43:30;-7.80;99.90
13854;DHT22;6997;51.782;8.824;2022-12-18T02:45:58;-7.70;99.90
13854;DHT22;6997;51.782;8.824;2022-12-18T02:48:29;-7.70;99.90
13854;DHT22;6997;51.782;8.824;2022-12-18T02:51:00;-7.40;99.90
13854;DHT22;6997;51.782;8.824;2022-12-18T02:53:43;-7.30;99.90
13854;DHT22;6997;51.782;8.824;2022-12-18T02:56:15;-7.40;99.90
13854;DHT22;6997;51.782;8.824;2022-12-18T03:12:07;-7.20;99.90
13854;DHT22;6997;51.782;8.824;2022-12-18T03:19:53;-6.90;99.90
13854;DHT22;6997;51.782;8.824;2022-12-18T03:29:53;-6.20;99.90
13854;DHT22;6997;51.782;8.824;2022-12-18T03:32:26;-6.10;99.90
13854;DHT22;6997;51.782;8.824;2022-12-18T03:37:21;-6.40;99.90
13854;DHT22;6997;51.782;8.824;2022-12-18T03:39:46;-6.60;99.90
13854;DHT22;6997;51.782;8.824;2022-12-18T03:48:01;-6.80;99.90
13854;DHT22;6997;51.782;8.824;2022-12-18T03:58:24;-6.80;99.90
13854;DHT22;6997;51.782;8.824;2022-12-18T04:13:04;-6.20;99.90
13854;DHT22;6997;51.782;8.824;2022-12-18T04:20:21;-6.10;99.90
13854;DHT22;6997;51.782;8.824;2022-12-18T04:22:47;-6.20;99.90
13854;DHT22;6997;51.782;8.824;2022-12-18T04:25:13;-6.30;99.90
13854;DHT22;6997;51.782;8.824;2022-12-18T04:27:39;-6.30;99.90
13854;DHT22;6997;51.782;8.824;2022-12-18T04:30:05;-6.40;99.90
13854;DHT22;6997;51.782;8.824;2022-12-18T04:32:31;-6.20;99.90
13854;DHT22;6997;51.782;8.824;2022-12-18T04:34:56;-6.20;99.90
13854;DHT22;6997;51.782;8.824;2022-12-18T04:39:48;-6.00;99.90
13854;DHT22;6997;51.782;8.824;2022-12-18T04:42:13;-6.10;99.90
13854;DHT22;6997;51.782;8.824;2022-12-18T04:56:49;-5.70;99.90
13854;DHT22;6997;51.782;8.824;2022-12-18T04:59:14;-5.70;99.90
13854;DHT22;6997;51.782;8.824;2022-12-18T05:08:58;-5.40;99.90
13854;DHT22;6997;51.782;8.824;2022-12-18T05:16:15;-5.50;99.90
13854;DHT22;6997;51.782;8.824;2022-12-18T05:18:42;-5.50;99.90
13854;DHT22;6997;51.782;8.824;2022-12-18T05:21:07;-5.60;99.90
13854;DHT22;6997;51.782;8.824;2022-12-18T05:28:28;-5.70;99.90
13854;DHT22;6997;51.782;8.824;2022-12-18T05:30:57;-5.70;99.90
13854;DHT22;6997;51.782;8.824;2022-12-18T05:33:25;-5.70;99.90
13854;DHT22;6997;51.782;8.824;2022-12-18T05:35:55;-5.70;99.90
13854;DHT22;6997;51.782;8.824;2022-12-18T05:38:22;-5.80;99.90
13854;DHT22;6997;51.782;8.824;2022-12-18T05:40:48;-5.70;99.90
13854;DHT22;6997;51.782;8.824;2022-12-18T05:43:15;-5.50;99.90
13854;DHT22;6997;51.782;8.824;2022-12-18T05:48:08;-5.30;99.90
13854;DHT22;6997;51.782;8.824;2022-12-18T05:50:35;-5.30;99.90
13854;DHT22;6997;51.782;8.824;2022-12-18T05:55:28;-5.10;99.90
13854;DHT22;6997;51.782;8.824;2022-12-18T06:02:48;-4.80;99.90
13854;DHT22;6997;51.782;8.824;2022-12-18T06:05:14;-4.90;99.90
13854;DHT22;6997;51.782;8.824;2022-12-18T06:14:59;-4.50;99.90
13854;DHT22;6997;51.782;8.824;2022-12-18T06:19:55;-4.40;99.90
13854;DHT22;6997;51.782;8.824;2022-12-18T06:22:20;-4.60;99.90
13854;DHT22;6997;51.782;8.824;2022-12-18T06:36:59;-4.50;99.90
13854;DHT22;6997;51.782;8.824;2022-12-18T06:39:27;-4.50;99.90
13854;DHT22;6997;51.782;8.824;2022-12-18T06:41:53;-4.50;99.90
13854;DHT22;6997;51.782;8.824;2022-12-18T06:44:18;-4.40;99.90
13854;DHT22;6997;51.782;8.824;2022-12-18T06:46:44;-4.60;99.90
13854;DHT22;6997;51.782;8.824;2022-12-18T06:54:01;-4.60;99.90
13854;DHT22;6997;51.782;8.824;2022-12-18T07:03:46;-4.70;99.90
13854;DHT22;6997;51.782;8.824;2022-12-18T07:06:19;-4.70;99.90
13854;DHT22;6997;51.782;8.824;2022-12-18T07:13:38;-4.70;99.90
13854;DHT22;6997;51.782;8.824;2022-12-18T07:16:18;-4.80;99.90
13854;DHT22;6997;51.782;8.824;2022-12-18T07:18:44;-4.80;99.90
13854;DHT22;6997;51.782;8.824;2022-12-18T07:21:12;-4.60;99.90
13854;DHT22;6997;51.782;8.824;2022-12-18T07:23:39;-4.60;99.90
13854;DHT22;6997;51.782;8.824;2022-12-18T07:31:02;-4.60;99.90
13854;DHT22;6997;51.782;8.824;2022-12-18T07:33:30;-4.70;99.90
13854;DHT22;6997;51.782;8.824;2022-12-18T07:43:19;-4.40;99.90
13854;DHT22;6997;51.782;8.824;2022-12-18T07:45:45;-4.50;99.90
13854;DHT22;6997;51.782;8.824;2022-12-18T07:48:11;-4.50;99.90
13854;DHT22;6997;51.782;8.824;2022-12-18T07:50:37;-4.30;99.90
13854;DHT22;6997;51.782;8.824;2022-12-18T07:53:03;-4.50;99.90
13854;DHT22;6997;51.782;8.824;2022-12-18T07:55:31;-4.20;99.90
13854;DHT22;6997;51.782;8.824;2022-12-18T07:57:59;-4.20;99.90
13854;DHT22;6997;51.782;8.824;2022-12-18T08:02:51;-4.20;99.90
13854;DHT22;6997;51.782;8.824;2022-12-18T08:05:17;-3.90;99.90
13854;DHT22;6997;51.782;8.824;2022-12-18T08:10:08;-4.00;99.90
13854;DHT22;6997;51.782;8.824;2022-12-18T08:12:35;-4.00;99.90
13854;DHT22;6997;51.782;8.824;2022-12-18T08:17:27;-4.00;99.90
13854;DHT22;6997;51.782;8.824;2022-12-18T08:19:52;-4.00;99.90
13854;DHT22;6997;51.782;8.824;2022-12-18T08:22:18;-4.00;99.90
13854;DHT22;6997;51.782;8.824;2022-12-18T08:24:44;-4.20;99.90
13854;DHT22;6997;51.782;8.824;2022-12-18T08:29:36;-4.20;99.90
13854;DHT22;6997;51.782;8.824;2022-12-18T08:34:28;-3.80;99.90
13854;DHT22;6997;51.782;8.824;2022-12-18T08:49:31;-3.50;99.90
13854;DHT22;6997;51.782;8.824;2022-12-18T08:51:57;-3.50;99.90
13854;DHT22;6997;51.782;8.824;2022-12-18T08:56:49;-3.30;99.90
13854;DHT22;6997;51.782;8.824;2022-12-18T08:59:19;-3.30;99.90
13854;DHT22;6997;51.782;8.824;2022-12-18T09:04:11;-3.30;99.90
13854;DHT22;6997;51.782;8.824;2022-12-18T09:13:57;-2.90;99.90
13854;DHT22;6997;51.782;8.824;2022-12-18T09:16:24;-2.80;99.90
13854;DHT22;6997;51.782;8.824;2022-12-18T09:23:48;-2.70;99.90
13854;DHT22;6997;51.782;8.824;2022-12-18T09:28:40;-2.50;99.90
13854;DHT22;6997;51.782;8.824;2022-12-18T09:38:27;-2.40;99.90
13854;DHT22;6997;51.782;8.824;2022-12-18T09:48:37;-2.40;99.90
13854;DHT22;6997;51.782;8.824;2022-12-18T10:00:59;-2.40;99.90
13854;DHT22;6997;51.782;8.824;2022-12-18T10:06:07;-2.40;99.90
13854;DHT22;6997;51.782;8.824;2022-12-18T10:32:00;-2.00;99.90
13854;DHT22;6997;51.782;8.824;2022-12-18T10:34:25;-1.90;99.90
13854;DHT22;6997;51.782;8.824;2022-12-18T10:41:44;-1.70;99.90
13854;DHT22;6997;51.782;8.824;2022-12-18T10:44:23;-1.60;99.90
13854;DHT22;6997;51.782;8.824;2022-12-18T10:49:32;-1.60;99.90
13854;DHT22;6997;51.782;8.824;2022-12-18T10:52:17;-1.70;99.90
13854;DHT22;6997;51.782;8.824;2022-12-18T11:02:33;-1.60;99.90
13854;DHT22;6997;51.782;8.824;2022-12-18T11:04:59;-1.50;99.90
13854;DHT22;6997;51.782;8.824;2022-12-18T11:10:15;-1.60;99.90
13854;DHT22;6997;51.782;8.824;2022-12-18T11:12:41;-1.50;99.90
13854;DHT22;6997;51.782;8.824;2022-12-18T11:20:23;-1.50;99.90
13854;DHT22;6997;51.782;8.824;2022-12-18T11:23:10;-1.50;99.90
13854;DHT22;6997;51.782;8.824;2022-12-18T11:25:37;-1.40;99.90
13854;DHT22;6997;51.782;8.824;2022-12-18T11:33:20;-1.20;99.90
13854;DHT22;6997;51.782;8.824;2022-12-18T11:35:56;-1.20;99.90
13854;DHT22;6997;51.782;8.824;2022-12-18T11:38:24;-1.30;99.90
13854;DHT22;6997;51.782;8.824;2022-12-18T11:46:23;-1.10;99.90
13854;DHT22;6997;51.782;8.824;2022-12-18T12:07:04;-0.90;99.90
13854;DHT22;6997;51.782;8.824;2022-12-18T12:17:51;-0.60;99.90
13854;DHT22;6997;51.782;8.824;2022-12-18T12:49:14;-0.50;99.90
13854;DHT22;6997;51.782;8.824;2022-12-18T12:54:18;-0.50;99.90
13854;DHT22;6997;51.782;8.824;2022-12-18T13:04:51;-0.40;99.90
13854;DHT22;6997;51.782;8.824;2022-12-18T13:58:23;-0.50;99.90
13854;DHT22;6997;51.782;8.824;2022-12-18T14:03:24;-0.60;99.90
13854;DHT22;6997;51.782;8.824;2022-12-18T14:06:07;-0.70;99.90
13854;DHT22;6997;51.782;8.824;2022-12-18T14:11:04;-0.60;99.90
13854;DHT22;6997;51.782;8.824;2022-12-18T14:16:01;-0.60;99.90
13854;DHT22;6997;51.782;8.824;2022-12-18T14:28:25;-0.60;99.90
13854;DHT22;6997;51.782;8.824;2022-12-18T14:43:22;-0.80;99.90
13854;DHT22;6997;51.782;8.824;2022-12-18T14:45:49;-0.90;99.90
13854;DHT22;6997;51.782;8.824;2022-12-18T14:48:37;-0.80;99.90
13854;DHT22;6997;51.782;8.824;2022-12-18T14:53:44;-0.80;99.90
13854;DHT22;6997;51.782;8.824;2022-12-18T14:58:56;-0.70;99.90
13854;DHT22;6997;51.782;8.824;2022-12-18T15:14:24;-1.00;99.90
13854;DHT22;6997;51.782;8.824;2022-12-18T15:16:57;-0.90;99.90
13854;DHT22;6997;51.782;8.824;2022-12-18T15:24:27;-1.00;99.90
13854;DHT22;6997;51.782;8.824;2022-12-18T15:29:22;-1.00;99.90
13854;DHT22;6997;51.782;8.824;2022-12-18T15:34:44;-1.00;99.90
13854;DHT22;6997;51.782;8.824;2022-12-18T15:37:10;-1.00;99.90
13854;DHT22;6997;51.782;8.824;2022-12-18T15:42:02;-1.10;99.90
13854;DHT22;6997;51.782;8.824;2022-12-18T15:47:12;-1.00;99.90
13854;DHT22;6997;51.782;8.824;2022-12-18T15:49:38;-1.00;99.90
13854;DHT22;6997;51.782;8.824;2022-12-18T15:57:16;-1.40;99.90
13854;DHT22;6997;51.782;8.824;2022-12-18T16:02:21;-1.10;99.90
13854;DHT22;6997;51.782;8.824;2022-12-18T16:07:15;-1.10;99.90
13854;DHT22;6997;51.782;8.824;2022-12-18T16:19:35;-1.20;99.90
13854;DHT22;6997;51.782;8.824;2022-12-18T16:29:21;-1.20;99.90
13854;DHT22;6997;51.782;8.824;2022-12-18T16:34:22;-1.10;99.90
13854;DHT22;6997;51.782;8.824;2022-12-18T16:39:15;-1.20;99.90
13854;DHT22;6997;51.782;8.824;2022-12-18T16:44:06;-1.10;99.90
13854;DHT22;6997;51.782;8.824;2022-12-18T16:46:32;-1.20;99.90
13854;DHT22;6997;51.782;8.824;2022-12-18T16:51:25;-1.30;99.90
13854;DHT22;6997;51.782;8.824;2022-12-18T16:53:52;-1.20;99.90
13854;DHT22;6997;51.782;8.824;2022-12-18T16:56:19;-1.10;99.90
13854;DHT22;6997;51.782;8.824;2022-12-18T16:58:53;-1.20;99.90
13854;DHT22;6997;51.782;8.824;2022-12-18T17:01:20;-1.10;99.90
13854;DHT22;6997;51.782;8.824;2022-12-18T17:04:03;-1.20;99.90
13854;DHT22;6997;51.782;8.824;2022-12-18T17:06:32;-1.20;99.90
13854;DHT22;6997;51.782;8.824;2022-12-18T17:16:20;-1.40;99.90
13854;DHT22;6997;51.782;8.824;2022-12-18T17:21:13;-1.50;99.90
13854;DHT22;6997;51.782;8.824;2022-12-18T17:23:40;-1.40;99.90
13854;DHT22;6997;51.782;8.824;2022-12-18T17:26:06;-1.60;99.90
13854;DHT22;6997;51.782;8.824;2022-12-18T17:28:33;-1.50;99.90
13854;DHT22;6997;51.782;8.824;2022-12-18T17:30:59;-1.50;99.90
13854;DHT22;6997;51.782;8.824;2022-12-18T17:35:51;-1.50;99.90
13854;DHT22;6997;51.782;8.824;2022-12-18T17:38:17;-1.50;99.90
13854;DHT22;6997;51.782;8.824;2022-12-18T17:40:43;-1.80;99.90
13854;DHT22;6997;51.782;8.824;2022-12-18T17:45:39;-1.50;99.90
13854;DHT22;6997;51.782;8.824;2022-12-18T17:50:33;-1.50;99.90
13854;DHT22;6997;51.782;8.824;2022-12-18T17:52:59;-1.50;99.90
13854;DHT22;6997;51.782;8.824;2022-12-18T17:57:51;-1.50;99.90
13854;DHT22;6997;51.782;8.824;2022-12-18T18:02:43;-1.30;99.90
13854;DHT22;6997;51.782;8.824;2022-12-18T18:05:09;-1.60;99.90
13854;DHT22;6997;51.782;8.824;2022-12-18T18:12:28;-1.60;99.90
13854;DHT22;6997;51.782;8.824;2022-12-18T18:17:38;-1.40;99.90
13854;DHT22;6997;51.782;8.824;2022-12-18T18:22:31;-1.50;99.90
13854;DHT22;6997;51.782;8.824;2022-12-18T18:24:57;-1.50;99.90
13854;DHT22;6997;51.782;8.824;2022-12-18T18:27:23;-1.80;99.90
13854;DHT22;6997;51.782;8.824;2022-12-18T18:29:48;-1.60;99.90
13854;DHT22;6997;51.782;8.824;2022-12-18T18:34:40;-1.60;99.90
13854;DHT22;6997;51.782;8.824;2022-12-18T18:37:05;-1.60;99.90
13854;DHT22;6997;51.782;8.824;2022-12-18T18:41:57;-1.60;99.90
13854;DHT22;6997;51.782;8.824;2022-12-18T18:46:49;-1.60;99.90
13854;DHT22;6997;51.782;8.824;2022-12-18T18:49:15;-1.90;99.90
13854;DHT22;6997;51.782;8.824;2022-12-18T18:54:07;-1.70;99.90
13854;DHT22;6997;51.782;8.824;2022-12-18T18:56:33;-1.70;99.90
13854;DHT22;6997;51.782;8.824;2022-12-18T18:58:58;-1.80;99.90
13854;DHT22;6997;51.782;8.824;2022-12-18T19:03:51;-1.80;99.90
13854;DHT22;6997;51.782;8.824;2022-12-18T19:06:22;-1.70;99.90
13854;DHT22;6997;51.782;8.824;2022-12-18T19:08:49;-1.70;99.90
13854;DHT22;6997;51.782;8.824;2022-12-18T19:14:03;-1.60;99.90
13854;DHT22;6997;51.782;8.824;2022-12-18T19:16:29;-1.50;99.90
13854;DHT22;6997;51.782;8.824;2022-12-18T19:21:21;-1.60;99.90
13854;DHT22;6997;51.782;8.824;2022-12-18T19:23:46;-1.70;99.90
13854;DHT22;6997;51.782;8.824;2022-12-18T19:28:39;-1.70;99.90
13854;DHT22;6997;51.782;8.824;2022-12-18T19:31:06;-1.70;99.90
13854;DHT22;6997;51.782;8.824;2022-12-18T19:36:00;-1.80;99.90
13854;DHT22;6997;51.782;8.824;2022-12-18T19:38:25;-1.80;99.90
13854;DHT22;6997;51.782;8.824;2022-12-18T19:45:43;-1.90;99.90
13854;DHT22;6997;51.782;8.824;2022-12-18T19:50:40;-1.90;99.90
13854;DHT22;6997;51.782;8.824;2022-12-18T19:53:06;-2.10;99.90
13854;DHT22;6997;51.782;8.824;2022-12-18T19:55:31;-1.80;99.90
13854;DHT22;6997;51.782;8.824;2022-12-18T20:02:49;-1.90;99.90
13854;DHT22;6997;51.782;8.824;2022-12-18T20:07:41;-1.80;99.90
13854;DHT22;6997;51.782;8.824;2022-12-18T20:10:09;-1.80;99.90
13854;DHT22;6997;51.782;8.824;2022-12-18T20:12:37;-1.70;99.90
13854;DHT22;6997;51.782;8.824;2022-12-18T20:17:28;-1.70;99.90
13854;DHT22;6997;51.782;8.824;2022-12-18T20:19:54;-1.70;99.90
13854;DHT22;6997;51.782;8.824;2022-12-18T20:27:12;-1.70;99.90
13854;DHT22;6997;51.782;8.824;2022-12-18T20:32:04;-1.60;99.90
13854;DHT22;6997;51.782;8.824;2022-12-18T20:46:42;-1.50;99.90
13854;DHT22;6997;51.782;8.824;2022-12-18T20:51:33;-1.60;99.90
13854;DHT22;6997;51.782;8.824;2022-12-18T20:53:59;-1.30;99.90
13854;DHT22;6997;51.782;8.824;2022-12-18T20:56:25;-1.60;99.90
13854;DHT22;6997;51.782;8.824;2022-12-18T21:01:19;-1.60;99.90
13854;DHT22;6997;51.782;8.824;2022-12-18T21:06:13;-1.60;99.90
13854;DHT22;6997;51.782;8.824;2022-12-18T21:08:39;-1.70;99.90
13854;DHT22;6997;51.782;8.824;2022-12-18T21:14:17;-1.60;99.90
13854;DHT22;6997;51.782;8.824;2022-12-18T21:16:43;-1.60;99.90
13854;DHT22;6997;51.782;8.824;2022-12-18T21:19:11;-1.60;99.90
13854;DHT22;6997;51.782;8.824;2022-12-18T21:21:37;-1.50;99.90
13854;DHT22;6997;51.782;8.824;2022-12-18T21:26:29;-1.80;99.90
13854;DHT22;6997;51.782;8.824;2022-12-18T21:38:42;-1.50;99.90
13854;DHT22;6997;51.782;8.824;2022-12-18T21:41:09;-1.60;99.90
13854;DHT22;6997;51.782;8.824;2022-12-18T21:51:14;-1.60;99.90
13854;DHT22;6997;51.782;8.824;2022-12-18T21:56:05;-1.60;99.90
13854;DHT22;6997;51.782;8.824;2022-12-18T22:03:23;-1.40;99.90
13854;DHT22;6997;51.782;8.824;2022-12-18T22:05:49;-1.50;99.90
13854;DHT22;6997;51.782;8.824;2022-12-18T22:08:14;-1.40;99.90
13854;DHT22;6997;51.782;8.824;2022-12-18T22:13:06;-1.50;99.90
13854;DHT22;6997;51.782;8.824;2022-12-18T22:17:58;-1.40;99.90
13854;DHT22;6997;51.782;8.824;2022-12-18T22:20:24;-1.30;99.90
13854;DHT22;6997;51.782;8.824;2022-12-18T22:22:49;-1.30;99.90
13854;DHT22;6997;51.782;8.824;2022-12-18T22:25:16;-1.20;99.90
13854;DHT22;6997;51.782;8.824;2022-12-18T22:30:28;-1.20;99.90
13854;DHT22;6997;51.782;8.824;2022-12-18T22:32:54;-1.10;99.90
13854;DHT22;6997;51.782;8.824;2022-12-18T22:37:45;-0.90;99.90
13854;DHT22;6997;51.782;8.824;2022-12-18T22:42:48;-1.20;99.90
13854;DHT22;6997;51.782;8.824;2022-12-18T22:47:40;-1.00;99.90
13854;DHT22;6997;51.782;8.824;2022-12-18T22:50:06;-0.90;99.90
13854;DHT22;6997;51.782;8.824;2022-12-18T22:59:50;-0.90;99.90
13854;DHT22;6997;51.782;8.824;2022-12-18T23:14:28;-0.60;99.90
13854;DHT22;6997;51.782;8.824;2022-12-18T23:19:21;-0.80;99.90
13854;DHT22;6997;51.782;8.824;2022-12-18T23:24:13;-0.50;99.90
13854;DHT22;6997;51.782;8.824;2022-12-18T23:26:39;-0.50;99.90
13854;DHT22;6997;51.782;8.824;2022-12-18T23:29:05;-0.50;99.90
13854;DHT22;6997;51.782;8.824;2022-12-18T23:31:32;-0.40;99.90
13854;DHT22;6997;51.782;8.824;2022-12-18T23:33:59;-0.40;99.90
13854;DHT22;6997;51.782;8.824;2022-12-18T23:36:26;0.10;99.90
13854;DHT22;6997;51.782;8.824;2022-12-18T23:41:21;-0.30;99.90
13854;DHT22;6997;51.782;8.824;2022-12-18T23:43:47;-0.10;99.90
13854;DHT22;6997;51.782;8.824;2022-12-18T23:48:44;-0.20;99.90
13854;DHT22;6997;51.782;8.824;2022-12-18T23:51:12;-0.10;99.90
13854;DHT22;6997;51.782;8.824;2022-12-18T23:56:05;-0.20;99.90
